Weather Top, Arizona (BMGR) Weather observations

Data are for 10 minute period ending at time listed.
 Day   Time   Solar   Ave.   Ave.  Ave.  Vector  Max.   Total    
  of    of     Rad.   Air    Rel.  Wind   Wind   Wind  Precip.   
Year   Day            Temp.  Hum.  Speed  Dir.   Gust            
2026   (MST)  Kw/m2    F      %     mph   deg.    mph    in.     
-----------------------------------------------------------------
 128    6:35   0.14   74.9    23    6.3   238    11.0    0.00 
 128    6:40   0.16   75.1    23    6.4   237     9.3    0.00 
 128    6:45   0.18   75.2    23    5.9   242     9.3    0.00 
 128    6:50   0.19   75.2    23    5.8   236     8.2    0.00 
 128    6:55   0.21   75.0    23    5.9   228     8.8    0.00 
 128    7:00   0.23   74.9    23    5.8   226     7.7    0.00 
 128    7:05   0.24   75.1    23    6.1   228     8.8    0.00 
 128    7:10   0.26   74.9    23    5.5   221     7.7    0.00 
 128    7:15   0.28   75.1    23    5.7   224     8.8    0.00 
 128    7:20   0.30   75.1    23    6.2   219     9.3    0.00 
 128    7:25   0.31   74.7    23    6.0   216     9.3    0.00 
 128    7:30   0.33   74.7    23    5.7   217     8.8    0.00 
 128    7:35   0.35   75.2    23    5.7   220     8.2    0.00 
 128    7:40   0.37   74.9    23    5.5   212     7.7    0.00 
 128    7:45   0.39   74.9    23    5.6   219     9.3    0.00 
 128    7:50   0.40   75.1    23    5.4   224     8.2    0.00 
 128    7:55   0.42   75.2    23    5.8   223     8.2    0.00 
 128    8:00   0.44   75.2    23    5.5   227     8.2    0.00 
 128    8:05   0.46   75.7    23    3.7   234     7.7    0.00 
 128    8:10   0.47   76.6    22    3.2   235     7.7    0.00 
 128    8:15   0.49   77.4    22    2.8   243     6.0    0.00 
 128    8:20   0.51   77.6    22    2.9   227     6.5    0.00 
 128    8:25   0.52   77.7    21    2.8   242     6.0    0.00 
 128    8:30   0.54   77.4    22    2.5   257     5.4    0.00 
 128    8:35   0.56   77.0    22    5.4   239    11.6    0.00 
 128    8:40   0.57   78.1    21    2.3   237     6.5    0.00 
 128    8:45   0.59   78.6    21    3.8    22     9.3    0.00 
 128    8:50   0.60   78.7    21    3.4   275     6.5    0.00 
 128    8:55   0.62   78.2    21    3.3   278     6.0    0.00 
 128    9:00   0.64   78.5    21    2.7   280     4.9    0.00 
 128    9:05   0.65   79.5    20    2.5    52     5.4    0.00 
 128    9:10   0.67   80.9    20    3.2   333     7.1    0.00 
 128    9:15   0.68   80.3    20    3.1   330     8.2    0.00 
 128    9:20   0.69   81.3    19    2.6    26     6.0    0.00 
 128    9:25   0.71   81.2    19    3.9   342     7.7    0.00 
 128    9:30   0.72   81.8    19    2.7    28     6.0    0.00 
 128    9:35   0.74   81.7    19    3.9   305     8.2    0.00 
 128    9:40   0.75   82.2    19    3.4   341     7.1    0.00 
 128    9:45   0.76   82.5    19    3.3     8     7.1    0.00 
 128    9:50   0.77   82.4    19    3.6   325     9.3    0.00 
 128    9:55   0.79   82.1    19    5.2   301    12.1    0.00 
 128   10:00   0.80   81.4    19    5.1   292    11.0    0.00 
 128   10:05   0.81   82.3    19    2.6   343     7.1    0.00 
 128   10:10   0.82   83.5    18    4.7   358    11.0    0.00 
 128   10:15   0.83   83.7    18    3.1    50     6.0    0.00 
 128   10:20   0.84   84.1    18    4.2    22     8.2    0.00 
 128   10:25   0.85   83.6    18    3.4   275     6.5    0.00 
 128   10:30   0.86   84.1    18    4.2    52     9.3    0.00 
 128   10:35   0.87   83.9    18    3.3   295     6.5    0.00 
 128   10:40   0.88   83.6    18    3.1   123     6.5    0.00 
 128   10:45   0.89   85.3    17    3.8    68     7.7    0.00 
 128   10:50   0.90   86.0    17    5.0    66    11.6    0.00 
 128   10:55   0.91   84.7    17    4.6   334     9.9    0.00 
 128   11:00   0.91   86.1    17    5.4    54    11.0    0.00 
 128   11:05   0.92   86.1    17    3.8    50     7.7    0.00 
 128   11:10   0.93   85.3    17    4.4   109    12.1    0.00 
 128   11:15   0.93   86.6    17    4.6   105     8.8    0.00 
 128   11:20   0.94   88.1    16    4.8    82     9.3    0.00 
 128   11:25   0.94   87.7    16    4.0    54     8.8    0.00 
 128   11:30   0.95   87.0    16    3.6   355     7.1    0.00 
 128   11:35   0.95   86.8    16    5.1    35     9.3    0.00 
 128   11:40   0.96   87.5    16    5.2    76     8.8    0.00 
 128   11:45   0.96   87.5    16    4.3    74     8.2    0.00 
 128   11:50   0.96   88.1    16    4.3   183     9.3    0.00 
 128   11:55   0.96   87.7    16    5.1    89    12.1    0.00 
 128   12:00   0.97   87.2    16    5.9   310    12.1    0.00 
 128   12:05   0.97   87.6    16    6.4    57    11.0    0.00 
 128   12:10   0.97   87.0    16    5.4    46    11.0    0.00 
 128   12:15   0.97   88.4    16    5.8    14    11.6    0.00 
 128   12:20   0.97   87.8    16    7.0   316    13.8    0.00 
 128   12:25   0.97   87.8    16    5.1    63    12.7    0.00 
 128   12:30   0.97   87.8    16    7.1   316    16.6    0.00 
 128   12:35   0.97   87.6    16    6.8   307    12.7    0.00 
 128   12:40   0.97   87.8    16    5.6   324    10.5    0.00 
 128   12:45   0.97   88.3    15    6.9   312    14.9    0.00 
 128   12:50   0.97   88.4    15    6.5   324    11.6    0.00 
 128   12:55   0.97   88.7    15    5.9    54    13.3    0.00 
 128   13:00   0.96   90.5    14    5.9    74     9.3    0.00 
 128   13:05   0.96   89.8    15    5.3    69     9.3    0.00 
 128   13:10   0.95   90.3    14    6.2    75    16.6    0.00 
 128   13:15   0.95   89.8    14    6.4   329    14.9    0.00 
 128   13:20   0.95   90.0    14    5.6   342    11.0    0.00 
 128   13:25   0.94   90.9    14    6.8    88    11.0    0.00 
 128   13:30   0.94   90.4    14    7.5    63    13.3    0.00 
 128   13:35   0.93   90.7    14    6.0    58    13.3    0.00 
 128   13:40   0.93   90.3    13    6.8    11    17.7    0.00 
 128   13:45   0.92   90.3    13    7.2   344    12.7    0.00 
 128   13:50   0.91   91.1    13    6.3    77    11.6    0.00 
 128   13:55   0.90   90.8    13    5.8    46    15.5    0.00 
 128   14:00   0.90   91.0    13    7.2    65    14.9    0.00 
 128   14:05   0.89   90.7    13    5.8    60    11.6    0.00 
 128   14:10   0.88   91.4    13    6.7   345    12.7    0.00 
 128   14:15   0.87   91.1    13    6.6   336    14.4    0.00 
 128   14:20   0.86   91.1    13    5.9    22    10.5    0.00 
 128   14:25   0.85   91.6    13    6.6   339    15.5    0.00 
 128   14:30   0.84   91.5    12    7.9   327    16.0    0.00 
 128   14:35   0.83   91.0    12    7.3     2    13.8    0.00 
 128   14:40   0.82   90.8    13    6.9   296    13.3    0.00 
 128   14:45   0.81   91.6    12    7.3   338    13.3    0.00 
 128   14:50   0.80   91.2    12    6.6    87    12.7    0.00 
 128   14:55   0.79   92.5    12    5.4    95     9.9    0.00 
 128   15:00   0.78   92.2    12    6.3    82    13.3    0.00 
 128   15:05   0.76   92.5    12    6.9    25    16.0    0.00 
 128   15:10   0.75   91.7    12    6.7    54    12.7    0.00 
 128   15:15   0.73   92.0    12    6.3    35    14.9    0.00 
 128   15:20   0.72   92.3    12    6.2    84    12.1    0.00 
 128   15:25   0.71   92.5    12    6.2    91    10.5    0.00 
 128   15:30   0.70   92.8    12    7.1   116    13.3    0.00 
 128   15:35   0.68   92.2    11    6.4    83    11.0    0.00 
 128   15:40   0.67   92.1    11    6.7    61    12.1    0.00 
 128   15:45   0.66   92.1    11    6.3   103    11.6    0.00 
 128   15:50   0.64   92.9    10    6.7    99     9.9    0.00 
 128   15:55   0.63   93.7    10    7.5    30    14.4    0.00 
 128   16:00   0.61   93.7    11    4.5    77     9.9    0.00 
 128   16:05   0.60   92.8    11    4.9    78    10.5    0.00 
 128   16:10   0.58   92.5    11    7.0    97    14.4    0.00 
 128   16:15   0.57   92.4    10    8.1   103    13.8    0.00 
 128   16:20   0.55   92.4    10    6.8    40    14.4    0.00 
 128   16:25   0.53   92.5    11    7.3    96    12.7    0.00 
 128   16:30   0.52   92.1    11    5.5   352    12.1    0.00 
 128   16:35   0.50   92.0    11    5.4    77    11.0    0.00 
 128   16:40   0.48   92.9    11    5.3   104     9.9    0.00 
 128   16:45   0.47   93.2    11    7.2   119    13.3    0.00 
 128   16:50   0.45   92.4    11    6.0    94    11.0    0.00 
 128   16:55   0.43   92.5    11    6.6   349    13.8    0.00 
 128   17:00   0.42   91.7    11    5.8    44    11.0    0.00 
 128   17:05   0.40   91.8    11    6.5    28    13.3    0.00 
 128   17:10   0.38   92.4    11    6.3    47    10.5    0.00 
 128   17:15   0.36   92.1    11    6.5    35    14.9    0.00 
 128   17:20   0.35   91.3    11    6.9    92    12.7    0.00 
 128   17:25   0.33   91.6    11    7.5     5    13.8    0.00 
 128   17:30   0.31   92.3    11    5.5    58    10.5    0.00 
 128   17:35   0.29   91.4    11    5.4   101    11.6    0.00 
 128   17:40   0.28   91.3    11    4.7    97     9.9    0.00 
 128   17:45   0.26   92.4    10    5.8    50    14.4    0.00 
 128   17:50   0.24   91.5    11    5.8    69    13.3    0.00 
 128   17:55   0.23   91.2    11    6.6    30    13.8    0.00 
 128   18:00   0.21   90.8    11    6.4   101    11.6    0.00 
 128   18:05   0.19   90.6    11    5.3    93    10.5    0.00 
 128   18:10   0.18   90.7    11    6.8    81    13.3    0.00 
 128   18:15   0.16   90.7    11    6.9    58    14.4    0.00 
 128   18:20   0.15   90.1    11    5.8    70    11.6    0.00 
 128   18:25   0.13   90.1    11    6.1    92    11.0    0.00 
 128   18:30   0.12   89.9    11    6.2    92    11.0    0.00 
 128   18:35   0.10   89.7    11    6.7   356    17.7    0.00 
 128   18:40   0.09   89.5    11    6.3    32    13.3    0.00 
 128   18:45   0.08   89.5    11    6.6   335    12.7    0.00 
 128   18:50   0.07   88.9    11    5.1   102    11.0    0.00 
 128   18:55   0.05   89.0    11    6.5   324    13.3    0.00 
 128   19:00   0.04   88.8    11    5.4    59    10.5    0.00 
 128   19:05   0.03   88.3    12    4.8    78    12.1    0.00 
 128   19:10   0.02   88.2    12    5.4    66     9.9    0.00 
 128   19:15   0.01   87.8    12    6.1   332    11.6    0.00 
 128   19:20   0.01   87.7    12    5.7   327    12.1    0.00 
 128   19:25   0.00   87.5    12    6.5   306    13.3    0.00 
 128   19:30   0.00   87.3    12    4.4    71     8.2    0.00 
 128   19:35   0.00   86.8    12    4.7   170     8.8    0.00 
 128   19:40   0.00   86.4    12    4.6   108     8.2    0.00 
 128   19:45   0.00   86.0    13    5.1    91     9.9    0.00 
 128   19:50   0.00   85.8    13    5.2    84     9.9    0.00 
 128   19:55   0.00   85.7    13    5.2    95     8.8    0.00 
 128   20:00   0.00   85.7    13    6.1    80    11.0    0.00 
 128   20:05   0.00   85.4    13    6.0    90    10.5    0.00 
 128   20:10   0.00   85.4    13    5.6    77     8.8    0.00 
 128   20:15   0.00   85.3    13    4.8    74     7.7    0.00 
 128   20:20   0.00   85.0    13    5.9    90    10.5    0.00 
 128   20:25   0.00   85.0    13    5.9    81    11.0    0.00 
 128   20:30   0.00   84.9    14    5.8    86    10.5    0.00 
 128   20:35   0.00   84.7    14    6.0    80    11.0    0.00 
 128   20:40   0.00   84.7    14    6.1    83    13.3    0.00 
 128   20:45   0.00   84.4    14    5.8    78    11.0    0.00 
 128   20:50   0.00   84.3    14    7.1    98    12.1    0.00 
 128   20:55   0.00   84.3    14    6.3    86    10.5    0.00 
 128   21:00   0.00   84.2    14    6.0    89    11.0    0.00 
 128   21:05   0.00   84.0    14    6.1    86    11.0    0.00 
 128   21:10   0.00   83.9    14    5.7    93    11.0    0.00 
 128   21:15   0.00   83.8    14    6.4    84    10.5    0.00 
 128   21:20   0.00   83.6    14    5.4    80     9.3    0.00 
 128   21:25   0.00   83.2    15    3.9    83     7.1    0.00 
 128   21:30   0.00   82.5    17    4.6    76     8.8    0.00 
 128   21:35   0.00   82.1    18    3.6    52     7.1    0.00 
 128   21:40   0.00   81.6    19    3.5    78     6.5    0.00 
 128   21:45   0.00   81.6    20    4.0    81     7.1    0.00 
 128   21:50   0.00   81.3    21    3.0   128     5.4    0.00 
 128   21:55   0.00   81.0    22    3.4    88     7.1    0.00 
 128   22:00   0.00   80.8    22    3.6    78     7.1    0.00 
 128   22:05   0.00   80.6    23    2.5   126     5.4    0.00 
 128   22:10   0.00   80.3    23    2.6   185     6.5    0.00 
 128   22:15   0.00   80.3    23    3.1   204     7.1    0.00 
 128   22:20   0.00   80.3    23    2.8   192     7.1    0.00 
 128   22:25   0.00   80.0    23    3.5   223     6.5    0.00 
 128   22:30   0.00   79.9    24    6.0   231     9.3    0.00 
 128   22:35   0.00   79.9    24    7.4   234    10.5    0.00 
 128   22:40   0.00   79.9    24    6.9   236    11.6    0.00 
 128   22:45   0.00   79.8    24    5.6   226     9.3    0.00 
 128   22:50   0.00   79.5    24    4.1   225     7.1    0.00 
 128   22:55   0.00   79.5    23    4.6   224     9.3    0.00 
 128   23:00   0.00   79.8    23    5.9   231     9.3    0.00 
 128   23:05   0.00   79.8    23    6.8   231     9.9    0.00 
 128   23:10   0.00   80.0    23    7.0   226     9.3    0.00 
 128   23:15   0.00   80.1    22    7.3   227     9.9    0.00 
 128   23:20   0.00   80.2    22    7.8   226    12.1    0.00 
 128   23:25   0.00   80.0    22    7.4   226    10.5    0.00 
 128   23:30   0.00   80.0    22    7.0   226    10.5    0.00 
 128   23:35   0.00   79.9    22    7.1   227    11.0    0.00 
 128   23:40   0.00   79.8    22    7.5   221    11.6    0.00 
 128   23:45   0.00   79.8    22    7.2   224    10.5    0.00 
 128   23:50   0.00   79.5    22    7.4   217    10.5    0.00 
 128   23:55   0.00   79.3    22    8.2   213    11.6    0.00 
 129    0:00   0.00   79.2    22    7.8   220    11.0    0.00 
 129    0:05   0.00   79.5    21    8.2   224    11.0    0.00 
 129    0:10   0.00   79.8    21    7.5   228    10.5    0.00 
 129    0:15   0.00   79.6    21    7.3   227    10.5    0.00 
 129    0:20   0.00   79.5    21    7.3   222    11.6    0.00 
 129    0:25   0.00   79.3    21    7.5   221    11.0    0.00 
 129    0:30   0.00   79.5    20    7.2   223    11.0    0.00 
 129    0:35   0.00   79.6    20    7.5   221    10.5    0.00 
 129    0:40   0.00   79.4    20    7.4   225    10.5    0.00 
 129    0:45   0.00   79.4    20    7.2   230    10.5    0.00 
 129    0:50   0.00   79.6    19    7.0   225     9.9    0.00 
 129    0:55   0.00   79.5    19    6.2   225     9.3    0.00 
 129    1:00   0.00   79.5    19    6.5   232    11.0    0.00 
 129    1:05   0.00   79.4    19    6.2   234     8.8    0.00 
 129    1:10   0.00   79.2    19    5.5   230     8.2    0.00 
 129    1:15   0.00   79.0    19    5.4   229     8.2    0.00 
 129    1:20   0.00   78.9    19    5.2   229     8.2    0.00 
 129    1:25   0.00   79.0    19    5.4   236     9.9    0.00 
 129    1:30   0.00   79.1    19    5.6   238     8.8    0.00 
 129    1:35   0.00   78.8    19    4.9   235     7.7    0.00 
 129    1:40   0.00   78.6    19    3.5   245     6.5    0.00 
 129    1:45   0.00   78.3    19    2.8   248     5.4    0.00 
 129    1:50   0.00   78.3    19    1.8   254     6.5    0.00 
 129    1:55   0.00   78.6    18    3.0   290     7.7    0.00 
 129    2:00   0.00   78.6    18    3.7   299     9.3    0.00 
 129    2:05   0.00   78.4    18    3.0    73     7.1    0.00 
 129    2:10   0.00   78.2    18    2.5    76     4.9    0.00 
 129    2:15   0.00   78.0    18    2.7     0     8.2    0.00 
 129    2:20   0.00   78.2    18    2.1   299     6.5    0.00 
 129    2:25   0.00   78.0    18    1.7   274     5.4    0.00 
 129    2:30   0.00   78.1    18    2.9   256     7.7    0.00 
 129    2:35   0.00   78.0    18    2.3   262     5.4    0.00 
 129    2:40   0.00   77.8    17    2.6   242     6.0    0.00 
 129    2:45   0.00   78.0    17    2.8   240     6.5    0.00 
 129    2:50   0.00   77.7    17    2.4   159     6.5    0.00 
 129    2:55   0.00   77.6    16    2.6    97     6.0    0.00 
 129    3:00   0.00   77.6    16    2.8    90     7.1    0.00 
 129    3:05   0.00   77.5    16    3.2   211     6.5    0.00 
 129    3:10   0.00   77.3    16    2.9   172     7.1    0.00 
 129    3:15   0.00   76.9    16    3.2   162     6.5    0.00 
 129    3:20   0.00   76.9    16    3.1   131     8.8    0.00 
 129    3:25   0.00   76.9    16    3.6   206     7.7    0.00 
 129    3:30   0.00   76.8    16    3.7   180     8.2    0.00 
 129    3:35   0.00   76.7    15    3.0   144     6.5    0.00 
 129    3:40   0.00   76.9    15    3.6   201     7.7    0.00 
 129    3:45   0.00   77.2    15    3.7    97     6.5    0.00 
 129    3:50   0.00   77.7    15    4.1    93     7.1    0.00 
 129    3:55   0.00   77.8    14    3.8    91     7.1    0.00 
 129    4:00   0.00   77.4    14    3.2   103     5.4    0.00 
 129    4:05   0.00   77.2    15    3.4   113     6.0    0.00 
 129    4:10   0.00   76.8    15    3.6   113     6.0    0.00 
 129    4:15   0.00   76.7    15    3.6   126     6.5    0.00 
 129    4:20   0.00   76.8    15    3.1   151     5.4    0.00 
 129    4:25   0.00   76.8    15    3.3   113     6.5    0.00 
 129    4:30   0.00   76.9    14    3.4   138     5.4    0.00 
 129    4:35   0.00   76.8    14    3.1   124     6.5    0.00 
 129    4:40   0.00   76.8    14    3.6   138     6.0    0.00 
 129    4:45   0.00   76.8    14    3.7    93     6.0    0.00 
 129    4:50   0.00   76.9    14    3.8    91     7.1    0.00 
 129    4:55   0.00   77.1    14    3.9   104     7.1    0.00 
 129    5:00   0.00   77.1    14    3.8    93     7.1    0.00 
 129    5:05   0.00   77.1    14    3.8   102     7.1    0.00 
 129    5:10   0.00   77.3    14    3.8    83     7.1    0.00 
 129    5:15   0.00   77.3    14    3.5    86     7.1    0.00 
 129    5:20   0.00   77.0    14    2.4    94     4.3    0.00 
 129    5:25   0.00   76.6    14    2.3   112     4.3    0.00 
 129    5:30   0.00   76.5    14    2.1   129     4.3    0.00 
 129    5:35   0.00   76.5    14    2.7   141     7.7    0.00 
 129    5:40   0.01   76.5    14    1.7   144     3.8    0.00 
 129    5:45   0.01   76.7    14    1.9   186     5.4    0.00 
 129    5:50   0.02   77.0    14    2.0   144     6.5    0.00 
 129    5:55   0.04   77.3    13    1.9   143     4.9    0.00 
 129    6:00   0.05   77.7    13    2.1   219     4.3    0.00 
 129    6:05   0.06   78.2    13    2.1   184     4.3    0.00 
 129    6:10   0.07   78.5    13    2.1   115     4.9    0.00 
 129    6:15   0.09   78.8    13    2.7    99     4.9    0.00 
 129    6:20   0.10   79.3    12    2.4    84     4.9    0.00 
 129    6:25   0.12   79.5    12    2.3    94     4.3    0.00 
 129    6:30   0.13   79.5    12    3.7   296     7.7    0.00 

Return to Weather Top graphs page.


Western Regional Climate Center,wrcc@dri.edu